createdAt,value
2023-05-09T00:02:08.042Z,101278.34
2023-05-09T00:04:35.371Z,101270.84
2023-05-09T00:07:01.972Z,101283.06
2023-05-09T00:09:28.570Z,101287.84
2023-05-09T00:11:55.170Z,101274.22
2023-05-09T00:14:21.874Z,101278.81
2023-05-09T00:16:48.637Z,101279.88
2023-05-09T00:19:15.251Z,101272.06
2023-05-09T00:21:41.827Z,101275.63
2023-05-09T00:24:08.463Z,101281.72
2023-05-09T00:26:35.067Z,101270.00
2023-05-09T00:29:01.672Z,101263.41
2023-05-09T00:31:28.256Z,101274.41
2023-05-09T00:33:54.840Z,101268.66
2023-05-09T00:36:21.731Z,101269.88
2023-05-09T00:38:48.291Z,101277.69
2023-05-09T00:41:14.813Z,101266.13
2023-05-09T00:43:41.467Z,101274.97
2023-05-09T00:46:08.134Z,101260.69
2023-05-09T00:48:35.611Z,101256.63
2023-05-09T00:51:02.360Z,101265.66
2023-05-09T00:53:28.889Z,101263.41
2023-05-09T00:55:56.712Z,101258.63
2023-05-09T00:58:23.891Z,101262.38
2023-05-09T01:00:50.613Z,101255.25
2023-05-09T01:03:17.836Z,101263.47
2023-05-09T01:05:56.625Z,101255.00
2023-05-09T01:08:32.225Z,101262.50
2023-05-09T01:11:09.618Z,101255.25
2023-05-09T01:13:41.322Z,101241.47
2023-05-09T01:16:26.829Z,101244.56
2023-05-09T01:19:10.494Z,101252.19
2023-05-09T01:21:44.129Z,101253.88
2023-05-09T01:24:28.838Z,101251.53
2023-05-09T01:27:44.586Z,101251.00
2023-05-09T01:30:13.667Z,101246.31
2023-05-09T01:32:43.357Z,101242.25
2023-05-09T01:35:13.568Z,101247.53
2023-05-09T01:37:43.560Z,101251.47
2023-05-09T01:40:16.680Z,101254.00
2023-05-09T01:43:07.050Z,101257.56
2023-05-09T01:45:36.079Z,101258.41
2023-05-09T01:48:03.770Z,101253.13
2023-05-09T01:50:31.642Z,101248.38
2023-05-09T01:53:01.446Z,101256.53
2023-05-09T01:55:32.693Z,101250.28
2023-05-09T01:58:00.214Z,101257.91
2023-05-09T02:00:27.999Z,101259.44
2023-05-09T02:02:55.634Z,101259.63
2023-05-09T02:05:28.331Z,101263.00
2023-05-09T02:07:59.342Z,101259.91
2023-05-09T02:10:28.120Z,101256.38
2023-05-09T02:12:54.999Z,101250.91
2023-05-09T02:15:21.793Z,101253.44
2023-05-09T02:17:48.518Z,101249.03
2023-05-09T02:20:15.188Z,101252.97
2023-05-09T02:22:43.510Z,101244.16
2023-05-09T02:25:11.875Z,101249.59
2023-05-09T02:27:40.210Z,101241.59
2023-05-09T02:30:11.215Z,101239.91
2023-05-09T02:32:39.636Z,101234.59
2023-05-09T02:35:07.649Z,101227.25
2023-05-09T02:37:34.411Z,101223.88
2023-05-09T02:40:01.501Z,101230.47
2023-05-09T02:42:30.062Z,101227.91
2023-05-09T02:44:56.654Z,101226.44
2023-05-09T02:47:23.334Z,101221.00
2023-05-09T02:49:49.902Z,101217.41
2023-05-09T02:52:16.536Z,101232.69
2023-05-09T02:54:43.186Z,101220.13
2023-05-09T02:57:09.788Z,101215.56
2023-05-09T02:59:36.546Z,101227.09
2023-05-09T03:02:03.172Z,101212.16
2023-05-09T03:04:34.307Z,101224.53
2023-05-09T03:07:01.058Z,101218.94
2023-05-09T03:09:27.620Z,101216.69
2023-05-09T03:11:56.297Z,101222.84
2023-05-09T03:14:22.875Z,101224.72
2023-05-09T03:16:49.525Z,101211.97
2023-05-09T03:19:16.092Z,101211.97
2023-05-09T03:21:42.681Z,101209.25
2023-05-09T03:24:10.814Z,101209.25
2023-05-09T03:26:37.418Z,101206.53
2023-05-09T03:29:04.248Z,101198.38
2023-05-09T03:31:30.813Z,101201.09
2023-05-09T03:33:57.911Z,101202.78
2023-05-09T03:36:24.896Z,101210.78
2023-05-09T03:38:51.422Z,101203.28
2023-05-09T03:41:18.918Z,101204.09
2023-05-09T03:43:45.958Z,101206.66
2023-05-09T03:46:12.608Z,101214.97
2023-05-09T03:48:39.230Z,101211.25
2023-05-09T03:51:06.102Z,101211.59
2023-05-09T03:53:32.718Z,101213.66
2023-05-09T03:55:59.307Z,101221.81
2023-05-09T03:58:26.456Z,101235.81
2023-05-09T04:00:53.694Z,101232.41
2023-05-09T04:03:20.729Z,101228.69
2023-05-09T04:05:47.425Z,101230.06
2023-05-09T04:08:14.093Z,101236.91
2023-05-09T04:10:40.631Z,101236.22
2023-05-09T04:13:07.233Z,101236.22
2023-05-09T04:15:33.806Z,101240.66
2023-05-09T04:18:00.563Z,101234.38
2023-05-09T04:20:27.460Z,101238.94
2023-05-09T04:22:54.078Z,101235.22
2023-05-09T04:25:21.105Z,101239.63
2023-05-09T04:27:47.667Z,101245.06
2023-05-09T04:30:14.684Z,101245.06
2023-05-09T04:32:45.835Z,101240.66
2023-05-09T04:35:14.080Z,101238.94
2023-05-09T04:37:41.792Z,101239.28
2023-05-09T04:40:09.351Z,101239.75
2023-05-09T04:42:36.225Z,101249.28
2023-05-09T04:45:03.188Z,101247.25
2023-05-09T04:47:29.825Z,101235.16
2023-05-09T04:49:56.477Z,101234.47
2023-05-09T04:52:23.281Z,101229.69
2023-05-09T04:54:49.849Z,101229.31
2023-05-09T04:57:18.850Z,101243.78
2023-05-09T04:59:45.851Z,101249.63
2023-05-09T05:02:13.013Z,101250.06
2023-05-09T05:04:39.833Z,101239.41
2023-05-09T05:07:06.508Z,101245.50
2023-05-09T05:09:33.159Z,101251.34
2023-05-09T05:12:02.913Z,101245.34
2023-05-09T05:14:30.948Z,101246.75
2023-05-09T05:16:57.516Z,101253.72
2023-05-09T05:19:24.104Z,101252.53
2023-05-09T05:21:50.695Z,101254.06
2023-05-09T05:24:17.253Z,101251.25
2023-05-09T05:26:43.845Z,101259.78
2023-05-09T05:29:10.660Z,101265.59
2023-05-09T05:31:37.257Z,101261.69
2023-05-09T05:34:03.884Z,101259.56
2023-05-09T05:36:31.702Z,101269.03
2023-05-09T05:38:58.468Z,101263.59
2023-05-09T05:41:25.078Z,101261.03
2023-05-09T05:43:54.085Z,101256.91
2023-05-09T05:46:21.231Z,101254.50
2023-05-09T05:48:47.824Z,101257.91
2023-05-09T05:51:14.347Z,101258.63
2023-05-09T05:53:40.989Z,101263.81
2023-05-09T05:56:07.669Z,101258.91
2023-05-09T05:58:34.261Z,101274.16
2023-05-09T06:01:00.944Z,101271.00
2023-05-09T06:03:27.694Z,101262.84
2023-05-09T06:05:54.426Z,101267.44
2023-05-09T06:08:21.009Z,101271.44
2023-05-09T06:10:47.612Z,101275.13
2023-05-09T06:13:14.179Z,101273.97
2023-05-09T06:15:40.992Z,101280.66
2023-05-09T06:18:08.982Z,101273.88
2023-05-09T06:20:36.129Z,101270.44
2023-05-09T06:23:02.751Z,101262.28
2023-05-09T06:25:29.365Z,101276.38
2023-05-09T06:27:55.952Z,101283.03
2023-05-09T06:30:26.353Z,101273.44
2023-05-09T06:32:54.938Z,101277.88
2023-05-09T06:35:21.938Z,101282.13
2023-05-09T06:37:49.152Z,101279.94
2023-05-09T06:40:17.039Z,101290.19
2023-05-09T06:42:43.790Z,101274.44
2023-05-09T06:45:11.078Z,101269.66
2023-05-09T06:47:37.810Z,101269.88
2023-05-09T06:50:04.690Z,101275.47
2023-05-09T06:52:31.235Z,101268.25
2023-05-09T06:54:57.813Z,101264.00
2023-05-09T06:57:24.497Z,101259.41
2023-05-09T06:59:51.115Z,101260.06
2023-05-09T07:02:17.797Z,101254.44
2023-05-09T07:04:44.322Z,101258.38
2023-05-09T07:07:10.920Z,101263.66
2023-05-09T07:09:37.678Z,101261.59
2023-05-09T07:12:04.588Z,101259.69
2023-05-09T07:14:31.244Z,101250.72
2023-05-09T07:17:09.929Z,101256.19
2023-05-09T07:19:44.342Z,101254.06
2023-05-09T07:22:11.018Z,101244.94
2023-05-09T07:24:37.644Z,101246.13
2023-05-09T07:27:04.424Z,101249.16
2023-05-09T07:29:31.068Z,101252.31
2023-05-09T07:31:57.695Z,101254.03
2023-05-09T07:34:25.585Z,101257.13
2023-05-09T07:36:52.314Z,101252.72
2023-05-09T07:39:18.981Z,101251.66
2023-05-09T07:41:46.439Z,101243.69
2023-05-09T07:44:15.276Z,101241.16
2023-05-09T07:46:42.246Z,101229.88
2023-05-09T07:49:09.265Z,101231.38
2023-05-09T07:51:35.981Z,101231.75
2023-05-09T07:54:02.584Z,101225.41
2023-05-09T07:56:29.328Z,101224.56
2023-05-09T07:58:56.035Z,101210.50
2023-05-09T08:01:22.648Z,101215.28
2023-05-09T08:03:49.309Z,101210.06
2023-05-09T08:06:16.041Z,101215.66
2023-05-09T08:08:42.872Z,101207.63
2023-05-09T08:11:28.657Z,101211.09
2023-05-09T08:13:55.231Z,101209.34
2023-05-09T08:16:21.944Z,101206.69
2023-05-09T08:18:48.559Z,101210.53
2023-05-09T08:21:15.037Z,101221.84
2023-05-09T08:23:41.704Z,101225.75
2023-05-09T08:26:08.328Z,101213.63
2023-05-09T08:28:34.910Z,101209.47
2023-05-09T08:31:01.626Z,101207.97
2023-05-09T08:33:28.307Z,101209.69
2023-05-09T08:35:56.053Z,101210.00
2023-05-09T08:38:24.272Z,101192.09
2023-05-09T08:40:52.737Z,101199.47
2023-05-09T08:43:23.679Z,101201.56
2023-05-09T08:45:58.380Z,101204.97
2023-05-09T08:48:29.107Z,101190.91
2023-05-09T08:51:03.403Z,101191.78
2023-05-09T08:56:11.152Z,101194.44
2023-05-09T08:58:39.087Z,101188.56
2023-05-09T09:01:09.209Z,101194.69
2023-05-09T09:03:38.272Z,101193.75
2023-05-09T09:06:07.624Z,101194.75
2023-05-09T09:08:35.702Z,101193.03
2023-05-09T09:11:02.802Z,101189.59
2023-05-09T09:13:30.428Z,101189.81
2023-05-09T09:16:00.252Z,101187.72
2023-05-09T09:18:30.119Z,101185.88
2023-05-09T09:21:01.728Z,101196.16
2023-05-09T09:23:30.378Z,101189.81
2023-05-09T09:26:01.916Z,101187.28
2023-05-09T09:28:28.715Z,101188.09
2023-05-09T09:30:55.927Z,101179.88
2023-05-09T09:33:25.055Z,101171.13
2023-05-09T09:35:56.021Z,101166.91
2023-05-09T09:38:23.934Z,101169.44
2023-05-09T09:40:57.777Z,101166.47
2023-05-09T09:43:29.061Z,101149.53
2023-05-09T09:45:57.129Z,101166.47
2023-05-09T09:48:27.868Z,101147.41
2023-05-09T09:50:56.861Z,101157.34
2023-05-09T09:53:24.097Z,101151.53
2023-05-09T09:55:52.158Z,101155.25
2023-05-09T09:58:24.252Z,101159.56
2023-05-09T10:01:07.756Z,101148.19
2023-05-09T10:03:42.378Z,101150.41
2023-05-09T10:06:13.837Z,101157.22
2023-05-09T10:08:41.527Z,101147.22
2023-05-09T10:11:11.278Z,101137.03
2023-05-09T10:13:38.739Z,101138.63
2023-05-09T10:16:06.284Z,101142.31
2023-05-09T10:18:33.974Z,101147.13
2023-05-09T10:21:05.154Z,101141.84
2023-05-09T10:23:34.529Z,101161.19
2023-05-09T10:26:12.973Z,101138.50
2023-05-09T10:28:41.943Z,101145.19
2023-05-09T10:31:28.209Z,101139.69
2023-05-09T10:33:59.766Z,101132.13
2023-05-09T10:36:26.569Z,101140.00
2023-05-09T10:38:57.767Z,101141.13
2023-05-09T10:41:25.665Z,101137.88
2023-05-09T10:43:56.701Z,101129.41
2023-05-09T10:46:24.323Z,101125.38
2023-05-09T10:48:51.303Z,101135.13
2023-05-09T10:51:18.136Z,101123.75
2023-05-09T10:53:49.959Z,101134.50
2023-05-09T10:56:28.855Z,101121.91
2023-05-09T10:58:57.867Z,101123.38
2023-05-09T11:01:37.523Z,101125.72
2023-05-09T11:04:17.251Z,101110.13
2023-05-09T11:07:02.680Z,101116.41
2023-05-09T11:09:39.498Z,101105.13
2023-05-09T11:12:06.288Z,101100.84
2023-05-09T11:14:44.446Z,101092.38
2023-05-09T11:17:23.276Z,101088.88
2023-05-09T11:19:49.885Z,101094.91
2023-05-09T11:22:26.299Z,101090.59
2023-05-09T11:25:01.175Z,101073.16
2023-05-09T11:27:29.066Z,101079.19
2023-05-09T11:30:16.671Z,101076.53
2023-05-09T11:33:14.052Z,101084.75
2023-05-09T11:35:44.027Z,101084.22
2023-05-09T11:38:10.657Z,101080.84
2023-05-09T11:40:37.853Z,101068.28
2023-05-09T11:43:04.356Z,101055.38
2023-05-09T11:45:33.308Z,101056.44
2023-05-09T11:48:04.044Z,101061.28
2023-05-09T11:50:35.944Z,101052.00
2023-05-09T11:53:09.353Z,101054.56
2023-05-09T11:55:44.554Z,101060.88
2023-05-09T11:58:11.230Z,101057.69
2023-05-09T12:00:55.236Z,101052.44
2023-05-09T12:03:22.033Z,101050.78
2023-05-09T12:05:49.141Z,101047.16
2023-05-09T12:08:16.525Z,101046.31
2023-05-09T12:10:43.169Z,101041.09
2023-05-09T12:13:10.658Z,101029.84
2023-05-09T12:15:37.999Z,101038.53
2023-05-09T12:18:10.096Z,101035.78
2023-05-09T12:20:47.721Z,101035.69
2023-05-09T12:23:15.106Z,101037.31
2023-05-09T12:25:53.796Z,101027.59
2023-05-09T12:28:22.646Z,101029.19
2023-05-09T12:30:50.221Z,101018.88
2023-05-09T12:33:17.304Z,101021.75
2023-05-09T12:35:48.253Z,101019.13
2023-05-09T12:38:20.995Z,101009.13
2023-05-09T12:41:03.525Z,101010.31
2023-05-09T12:43:35.638Z,101014.84
2023-05-09T12:46:03.896Z,101003.41
2023-05-09T12:48:37.884Z,100999.13
2023-05-09T12:51:08.213Z,100995.56
2023-05-09T12:53:41.638Z,100994.13
2023-05-09T12:56:19.150Z,100990.41
2023-05-09T12:58:51.141Z,100988.78
2023-05-09T13:01:18.675Z,100988.16
2023-05-09T13:03:50.949Z,100985.84
2023-05-09T13:06:17.544Z,100976.69
2023-05-09T13:08:44.461Z,100964.31
2023-05-09T13:11:20.225Z,100958.28
2023-05-09T13:13:50.250Z,100960.06
2023-05-09T13:16:17.823Z,100959.69
2023-05-09T13:18:44.665Z,100951.97
2023-05-09T13:21:11.327Z,100956.09
2023-05-09T13:23:37.940Z,100946.72
2023-05-09T13:26:04.855Z,100960.28
2023-05-09T13:28:32.444Z,100945.50
2023-05-09T13:31:00.178Z,100942.13
2023-05-09T13:33:27.211Z,100931.38
2023-05-09T13:35:54.051Z,100932.78
2023-05-09T13:38:20.956Z,100938.78
2023-05-09T13:40:47.473Z,100931.38
2023-05-09T13:43:14.139Z,100933.16
2023-05-09T13:45:41.031Z,100931.00
2023-05-09T13:48:07.976Z,100926.06
2023-05-09T13:50:34.710Z,100922.75
2023-05-09T13:53:01.302Z,100927.38
2023-05-09T13:55:32.308Z,100918.53
2023-05-09T13:57:59.872Z,100916.25
2023-05-09T14:00:27.454Z,100908.84
2023-05-09T14:02:54.193Z,100910.28
2023-05-09T14:05:20.980Z,100921.47
2023-05-09T14:07:47.618Z,100910.94
2023-05-09T14:10:14.315Z,100902.94
2023-05-09T14:12:44.158Z,100890.50
2023-05-09T14:15:11.199Z,100898.81
2023-05-09T14:17:37.920Z,100899.78
2023-05-09T14:20:04.841Z,100894.34
2023-05-09T14:22:32.130Z,100881.63
2023-05-09T14:24:59.463Z,100883.75
2023-05-09T14:27:27.167Z,100877.16
2023-05-09T14:29:54.174Z,100880.34
2023-05-09T14:32:21.036Z,100870.16
2023-05-09T14:34:49.666Z,100859.34
2023-05-09T14:37:16.461Z,100868.28
2023-05-09T14:39:45.345Z,100874.41
2023-05-09T14:42:14.169Z,100866.31
2023-05-09T14:44:43.021Z,100871.56
2023-05-09T14:47:10.057Z,100859.88
2023-05-09T14:49:38.422Z,100861.97
2023-05-09T14:52:05.765Z,100856.38
2023-05-09T14:54:32.592Z,100855.41
2023-05-09T14:56:59.591Z,100864.22
2023-05-09T14:59:26.210Z,100868.84
2023-05-09T15:01:52.897Z,100871.09
2023-05-09T15:04:19.870Z,100875.41
2023-05-09T15:06:46.391Z,100866.72
2023-05-09T15:09:16.073Z,100871.91
2023-05-09T15:11:48.445Z,100867.47
2023-05-09T15:14:16.817Z,100869.13
2023-05-09T15:16:43.818Z,100860.94
2023-05-09T15:19:10.471Z,100860.19
2023-05-09T15:21:37.084Z,100853.75
2023-05-09T15:24:06.487Z,100863.81
2023-05-09T15:26:33.321Z,100847.31
2023-05-09T15:28:59.955Z,100851.75
2023-05-09T15:31:29.730Z,100848.22
2023-05-09T15:33:56.343Z,100848.94
2023-05-09T15:36:22.910Z,100851.25
2023-05-09T15:38:56.783Z,100850.25
2023-05-09T15:41:23.462Z,100842.47
2023-05-09T15:43:50.419Z,100831.22
2023-05-09T15:46:17.160Z,100844.56
2023-05-09T15:48:43.994Z,100836.22
2023-05-09T15:51:10.619Z,100826.50
2023-05-09T15:53:37.300Z,100829.41
2023-05-09T15:56:04.580Z,100840.16
2023-05-09T15:58:32.738Z,100840.22
2023-05-09T16:00:59.633Z,100833.63
2023-05-09T16:03:26.364Z,100842.22
2023-05-09T16:05:53.265Z,100840.97
2023-05-09T16:08:20.994Z,100836.94
2023-05-09T16:10:49.259Z,100840.53
2023-05-09T16:13:18.261Z,100832.19
2023-05-09T16:15:45.541Z,100835.56
2023-05-09T16:18:13.375Z,100832.38
2023-05-09T16:20:40.361Z,100838.63
2023-05-09T16:23:09.658Z,100846.22
2023-05-09T16:25:37.490Z,100831.81
2023-05-09T16:28:04.314Z,100832.19
2023-05-09T16:30:30.919Z,100836.00
2023-05-09T16:32:57.993Z,100834.78
2023-05-09T16:35:25.114Z,100842.38
2023-05-09T16:37:51.682Z,100835.25
2023-05-09T16:40:19.565Z,100829.97
2023-05-09T16:42:46.410Z,100824.69
2023-05-09T16:45:13.023Z,100824.09
2023-05-09T16:47:39.815Z,100820.06
2023-05-09T16:50:06.911Z,100825.97
2023-05-09T16:52:33.465Z,100822.00
2023-05-09T16:55:00.600Z,100824.56
2023-05-09T16:57:27.286Z,100810.69
2023-05-09T16:59:53.903Z,100834.50
2023-05-09T17:02:20.495Z,100823.09
2023-05-09T17:04:47.386Z,100824.19
2023-05-09T17:07:14.609Z,100825.28
2023-05-09T17:09:41.457Z,100812.63
2023-05-09T17:12:10.894Z,100814.53
2023-05-09T17:14:37.607Z,100800.88
2023-05-09T17:17:04.368Z,100802.56
2023-05-09T17:19:32.680Z,100800.44
2023-05-09T17:22:04.574Z,100790.78
2023-05-09T17:24:32.389Z,100804.84
2023-05-09T17:27:00.091Z,100807.59
2023-05-09T17:29:29.210Z,100802.13
2023-05-09T17:32:02.366Z,100799.19
2023-05-09T17:34:29.303Z,100809.94
2023-05-09T17:36:56.568Z,100810.34
2023-05-09T17:39:23.433Z,100813.53
2023-05-09T17:41:50.187Z,100813.94
2023-05-09T17:44:16.980Z,100812.28
2023-05-09T17:46:44.083Z,100810.56
2023-05-09T17:49:13.897Z,100807.84
2023-05-09T17:51:41.241Z,100810.16
2023-05-09T17:54:08.041Z,100811.47
2023-05-09T17:56:34.733Z,100791.06
2023-05-09T17:59:01.836Z,100777.41
2023-05-09T18:01:28.788Z,100797.78
2023-05-09T18:03:55.583Z,100794.84
2023-05-09T18:06:22.300Z,100786.66
2023-05-09T18:08:49.205Z,100795.91
2023-05-09T18:11:15.833Z,100795.50
2023-05-09T18:13:42.478Z,100790.03
2023-05-09T18:16:09.064Z,100791.09
2023-05-09T18:18:36.648Z,100802.84
2023-05-09T18:21:04.970Z,100806.00
2023-05-09T18:23:32.086Z,100802.59
2023-05-09T18:25:58.917Z,100799.66
2023-05-09T18:28:26.532Z,100803.00
2023-05-09T18:30:58.475Z,100800.72
2023-05-09T18:33:28.805Z,100792.06
2023-05-09T18:35:55.567Z,100803.44
2023-05-09T18:38:22.869Z,100800.06
2023-05-09T18:40:51.831Z,100797.50
2023-05-09T18:43:20.678Z,100800.69
2023-05-09T18:45:48.092Z,100789.97
2023-05-09T18:48:17.729Z,100794.16
2023-05-09T18:50:44.770Z,100795.00
2023-05-09T18:53:11.610Z,100793.53
2023-05-09T18:55:38.824Z,100786.59
2023-05-09T18:58:07.122Z,100789.94
2023-05-09T19:00:35.674Z,100790.97
2023-05-09T19:03:02.286Z,100797.09
2023-05-09T19:05:29.175Z,100795.81
2023-05-09T19:07:56.477Z,100801.69
2023-05-09T19:10:23.773Z,100799.59
2023-05-09T19:12:50.668Z,100807.13
2023-05-09T19:15:17.363Z,100810.50
2023-05-09T19:17:44.063Z,100809.66
2023-05-09T19:20:11.678Z,100814.03
2023-05-09T19:22:41.099Z,100818.84
2023-05-09T19:25:08.130Z,100803.50
2023-05-09T19:27:34.771Z,100818.41
2023-05-09T19:30:01.950Z,100816.72
2023-05-09T19:32:28.879Z,100812.13
2023-05-09T19:34:55.511Z,100811.06
2023-05-09T19:37:22.093Z,100813.97
2023-05-09T19:39:53.968Z,100812.41
2023-05-09T19:42:21.508Z,100817.00
2023-05-09T19:44:48.322Z,100819.72
2023-05-09T19:47:14.986Z,100820.06
2023-05-09T19:49:42.960Z,100819.59
2023-05-09T19:52:09.627Z,100815.97
2023-05-09T19:54:36.410Z,100822.22
2023-05-09T19:57:06.360Z,100829.75
2023-05-09T19:59:33.157Z,100831.78
2023-05-09T20:02:00.380Z,100829.47
2023-05-09T20:04:27.040Z,100824.63
2023-05-09T20:06:54.132Z,100826.06
2023-05-09T20:09:21.285Z,100824.53
2023-05-09T20:11:48.295Z,100823.09
2023-05-09T20:14:15.054Z,100827.94
2023-05-09T20:16:43.981Z,100830.22
2023-05-09T20:19:14.517Z,100833.72
2023-05-09T20:21:41.284Z,100828.06
2023-05-09T20:24:08.720Z,100836.06
2023-05-09T20:26:35.342Z,100829.72
2023-05-09T20:29:01.912Z,100837.63
2023-05-09T20:31:29.290Z,100838.44
2023-05-09T20:33:57.497Z,100825.03
2023-05-09T20:36:24.861Z,100823.59
2023-05-09T20:38:51.446Z,100816.84
2023-05-09T20:41:18.058Z,100820.16
2023-05-09T20:43:44.642Z,100816.78
2023-05-09T20:46:11.804Z,100822.06
2023-05-09T20:48:38.368Z,100814.69
2023-05-09T20:51:05.007Z,100820.66
2023-05-09T20:53:32.510Z,100814.47
2023-05-09T20:55:59.824Z,100806.78
2023-05-09T20:58:28.004Z,100799.53
2023-05-09T21:00:54.599Z,100801.06
2023-05-09T21:03:21.546Z,100802.63
2023-05-09T21:05:48.239Z,100796.19
2023-05-09T21:08:14.853Z,100797.06
2023-05-09T21:10:41.560Z,100794.25
2023-05-09T21:13:08.196Z,100790.63
2023-05-09T21:15:34.704Z,100789.50
2023-05-09T21:18:01.372Z,100790.09
2023-05-09T21:20:28.016Z,100784.09
2023-05-09T21:22:54.575Z,100786.16
2023-05-09T21:25:21.346Z,100779.44
2023-05-09T21:27:47.903Z,100781.66
2023-05-09T21:30:14.635Z,100779.78
2023-05-09T21:32:41.529Z,100783.16
2023-05-09T21:35:12.593Z,100775.41
2023-05-09T21:37:39.464Z,100769.69
2023-05-09T21:40:06.870Z,100774.09
2023-05-09T21:42:33.461Z,100774.91
2023-05-09T21:45:00.042Z,100783.81
2023-05-09T21:47:27.156Z,100770.88
2023-05-09T21:49:54.660Z,100775.59
2023-05-09T21:52:23.504Z,100773.34
2023-05-09T21:54:50.101Z,100773.16
2023-05-09T21:57:16.701Z,100767.72
2023-05-09T21:59:43.463Z,100758.06
2023-05-09T22:02:10.049Z,100765.19
2023-05-09T22:04:36.605Z,100766.69
2023-05-09T22:07:03.204Z,100768.66
2023-05-09T22:09:29.891Z,100754.88
2023-05-09T22:11:56.444Z,100761.38
2023-05-09T22:14:22.980Z,100764.72
2023-05-09T22:16:49.777Z,100755.19
2023-05-09T22:19:17.393Z,100755.81
2023-05-09T22:21:44.664Z,100752.47
2023-05-09T22:24:11.318Z,100751.88
2023-05-09T22:26:37.857Z,100750.19
2023-05-09T22:29:04.488Z,100746.44
2023-05-09T22:31:31.180Z,100749.34
2023-05-09T22:33:57.792Z,100740.81
2023-05-09T22:36:24.961Z,100742.50
2023-05-09T22:38:51.654Z,100729.97
2023-05-09T22:41:18.216Z,100728.72
2023-05-09T22:43:45.053Z,100735.19
2023-05-09T22:46:11.657Z,100727.41
2023-05-09T22:48:38.221Z,100731.44
2023-05-09T22:51:04.898Z,100725.44
2023-05-09T22:53:32.810Z,100718.13
2023-05-09T22:55:59.811Z,100720.66
2023-05-09T22:58:26.459Z,100713.34
2023-05-09T23:00:53.174Z,100710.63
2023-05-09T23:03:19.917Z,100712.50
2023-05-09T23:05:46.642Z,100705.19
2023-05-09T23:08:13.285Z,100699.75
2023-05-09T23:10:39.852Z,100699.34
2023-05-09T23:13:06.638Z,100699.56
2023-05-09T23:15:33.527Z,100697.47
2023-05-09T23:18:00.215Z,100684.94
2023-05-09T23:20:26.935Z,100687.81
2023-05-09T23:22:53.545Z,100689.06
2023-05-09T23:25:20.286Z,100684.66
2023-05-09T23:27:47.074Z,100672.88
2023-05-09T23:30:14.028Z,100670.41
2023-05-09T23:32:40.818Z,100669.84
2023-05-09T23:35:07.547Z,100672.38
2023-05-09T23:37:34.252Z,100668.81
2023-05-09T23:40:00.980Z,100667.13
2023-05-09T23:42:27.596Z,100663.56
2023-05-09T23:44:54.271Z,100660.84
2023-05-09T23:47:20.858Z,100656.47
2023-05-09T23:49:47.461Z,100643.81
2023-05-09T23:52:15.012Z,100651.84
2023-05-09T23:54:41.623Z,100649.53
2023-05-09T23:57:08.222Z,100648.03
2023-05-09T23:59:34.821Z,100646.53
